sensor_id;sensor_type;location;lat;lon;timestamp;temperature;humidity
67862;DHT22;54665;51.462;6.698;2022-11-25T00:00:49;7.13;88.73
67862;DHT22;54665;51.462;6.698;2022-11-25T00:03:14;7.15;88.81
67862;DHT22;54665;51.462;6.698;2022-11-25T00:05:39;7.13;88.85
67862;DHT22;54665;51.462;6.698;2022-11-25T00:08:05;7.16;88.61
67862;DHT22;54665;51.462;6.698;2022-11-25T00:10:30;7.18;88.80
67862;DHT22;54665;51.462;6.698;2022-11-25T00:12:55;7.24;88.86
67862;DHT22;54665;51.462;6.698;2022-11-25T00:15:21;7.23;88.71
67862;DHT22;54665;51.462;6.698;2022-11-25T00:17:46;7.29;88.59
67862;DHT22;54665;51.462;6.698;2022-11-25T00:20:12;7.27;88.49
67862;DHT22;54665;51.462;6.698;2022-11-25T00:22:37;7.34;88.47
67862;DHT22;54665;51.462;6.698;2022-11-25T00:25:03;7.43;88.25
67862;DHT22;54665;51.462;6.698;2022-11-25T00:27:28;7.49;87.84
67862;DHT22;54665;51.462;6.698;2022-11-25T00:29:54;7.51;87.86
67862;DHT22;54665;51.462;6.698;2022-11-25T00:32:19;7.54;87.92
67862;DHT22;54665;51.462;6.698;2022-11-25T00:34:44;7.51;87.90
67862;DHT22;54665;51.462;6.698;2022-11-25T00:37:10;7.56;87.90
67862;DHT22;54665;51.462;6.698;2022-11-25T00:39:36;7.60;87.79
67862;DHT22;54665;51.462;6.698;2022-11-25T00:42:02;7.60;87.68
67862;DHT22;54665;51.462;6.698;2022-11-25T00:44:46;7.60;87.73
67862;DHT22;54665;51.462;6.698;2022-11-25T00:47:17;7.59;87.77
67862;DHT22;54665;51.462;6.698;2022-11-25T00:49:49;7.70;87.57
67862;DHT22;54665;51.462;6.698;2022-11-25T00:52:16;7.73;87.35
67862;DHT22;54665;51.462;6.698;2022-11-25T00:54:42;7.70;87.54
67862;DHT22;54665;51.462;6.698;2022-11-25T00:57:12;7.70;87.63
67862;DHT22;54665;51.462;6.698;2022-11-25T00:59:38;7.71;87.78
67862;DHT22;54665;51.462;6.698;2022-11-25T01:02:03;7.83;87.63
67862;DHT22;54665;51.462;6.698;2022-11-25T01:04:29;7.90;87.41
67862;DHT22;54665;51.462;6.698;2022-11-25T01:06:54;8.01;87.15
67862;DHT22;54665;51.462;6.698;2022-11-25T01:09:21;8.09;86.88
67862;DHT22;54665;51.462;6.698;2022-11-25T01:11:49;8.14;86.86
67862;DHT22;54665;51.462;6.698;2022-11-25T01:14:15;8.22;86.63
67862;DHT22;54665;51.462;6.698;2022-11-25T01:16:41;8.31;86.24
67862;DHT22;54665;51.462;6.698;2022-11-25T01:19:06;8.39;86.02
67862;DHT22;54665;51.462;6.698;2022-11-25T01:21:33;8.41;85.94
67862;DHT22;54665;51.462;6.698;2022-11-25T01:24:00;8.39;86.00
67862;DHT22;54665;51.462;6.698;2022-11-25T01:26:25;8.46;85.72
67862;DHT22;54665;51.462;6.698;2022-11-25T01:28:53;8.46;85.84
67862;DHT22;54665;51.462;6.698;2022-11-25T01:31:21;8.52;85.95
67862;DHT22;54665;51.462;6.698;2022-11-25T01:34:02;8.52;85.99
67862;DHT22;54665;51.462;6.698;2022-11-25T01:36:28;8.52;85.88
67862;DHT22;54665;51.462;6.698;2022-11-25T01:38:56;8.53;86.05
67862;DHT22;54665;51.462;6.698;2022-11-25T01:41:23;8.52;86.17
67862;DHT22;54665;51.462;6.698;2022-11-25T01:44:22;8.57;85.96
67862;DHT22;54665;51.462;6.698;2022-11-25T01:49:38;8.63;85.64
67862;DHT22;54665;51.462;6.698;2022-11-25T01:52:24;8.56;86.15
67862;DHT22;54665;51.462;6.698;2022-11-25T01:54:55;8.57;85.97
67862;DHT22;54665;51.462;6.698;2022-11-25T01:57:26;8.56;86.08
67862;DHT22;54665;51.462;6.698;2022-11-25T01:59:55;8.60;86.03
67862;DHT22;54665;51.462;6.698;2022-11-25T02:02:21;8.57;85.98
67862;DHT22;54665;51.462;6.698;2022-11-25T02:04:47;8.63;85.88
67862;DHT22;54665;51.462;6.698;2022-11-25T02:07:37;8.60;86.12
67862;DHT22;54665;51.462;6.698;2022-11-25T02:10:10;8.60;86.15
67862;DHT22;54665;51.462;6.698;2022-11-25T02:12:42;8.62;86.09
67862;DHT22;54665;51.462;6.698;2022-11-25T02:15:10;8.66;86.12
67862;DHT22;54665;51.462;6.698;2022-11-25T02:17:36;8.69;86.00
67862;DHT22;54665;51.462;6.698;2022-11-25T02:20:06;8.80;85.22
67862;DHT22;54665;51.462;6.698;2022-11-25T02:22:42;8.84;85.45
67862;DHT22;54665;51.462;6.698;2022-11-25T02:25:33;8.90;85.32
67862;DHT22;54665;51.462;6.698;2022-11-25T02:28:12;8.94;85.58
67862;DHT22;54665;51.462;6.698;2022-11-25T02:30:38;8.93;85.75
67862;DHT22;54665;51.462;6.698;2022-11-25T02:33:04;8.91;85.74
67862;DHT22;54665;51.462;6.698;2022-11-25T02:37:58;8.91;85.81
67862;DHT22;54665;51.462;6.698;2022-11-25T02:40:26;8.91;85.72
67862;DHT22;54665;51.462;6.698;2022-11-25T02:42:55;8.93;85.68
67862;DHT22;54665;51.462;6.698;2022-11-25T02:45:28;8.93;85.78
67862;DHT22;54665;51.462;6.698;2022-11-25T02:47:57;8.91;86.22
67862;DHT22;54665;51.462;6.698;2022-11-25T02:50:23;8.91;86.20
67862;DHT22;54665;51.462;6.698;2022-11-25T02:52:49;8.93;86.17
67862;DHT22;54665;51.462;6.698;2022-11-25T02:55:14;8.91;86.36
67862;DHT22;54665;51.462;6.698;2022-11-25T02:57:40;8.99;85.84
67862;DHT22;54665;51.462;6.698;2022-11-25T03:00:06;9.05;85.39
67862;DHT22;54665;51.462;6.698;2022-11-25T03:02:31;9.05;85.71
67862;DHT22;54665;51.462;6.698;2022-11-25T03:05:00;9.08;85.56
67862;DHT22;54665;51.462;6.698;2022-11-25T03:07:25;9.11;85.37
67862;DHT22;54665;51.462;6.698;2022-11-25T03:09:51;9.13;85.40
67862;DHT22;54665;51.462;6.698;2022-11-25T03:12:17;9.14;85.26
67862;DHT22;54665;51.462;6.698;2022-11-25T03:14:43;9.14;85.39
67862;DHT22;54665;51.462;6.698;2022-11-25T03:17:10;9.17;84.91
67862;DHT22;54665;51.462;6.698;2022-11-25T03:19:37;9.20;85.01
67862;DHT22;54665;51.462;6.698;2022-11-25T03:22:03;9.14;85.27
67862;DHT22;54665;51.462;6.698;2022-11-25T03:24:28;9.13;85.51
67862;DHT22;54665;51.462;6.698;2022-11-25T03:26:54;9.14;85.49
67862;DHT22;54665;51.462;6.698;2022-11-25T03:29:19;9.17;85.21
67862;DHT22;54665;51.462;6.698;2022-11-25T03:31:45;9.17;85.32
67862;DHT22;54665;51.462;6.698;2022-11-25T03:34:11;9.15;85.59
67862;DHT22;54665;51.462;6.698;2022-11-25T03:36:37;9.17;85.31
67862;DHT22;54665;51.462;6.698;2022-11-25T03:39:04;9.17;85.53
67862;DHT22;54665;51.462;6.698;2022-11-25T03:41:32;9.15;85.44
67862;DHT22;54665;51.462;6.698;2022-11-25T03:43:58;9.14;85.86
67862;DHT22;54665;51.462;6.698;2022-11-25T03:46:23;9.13;86.02
67862;DHT22;54665;51.462;6.698;2022-11-25T03:48:50;9.08;86.53
67862;DHT22;54665;51.462;6.698;2022-11-25T03:51:15;9.03;87.49
67862;DHT22;54665;51.462;6.698;2022-11-25T03:53:42;8.90;88.38
67862;DHT22;54665;51.462;6.698;2022-11-25T03:56:08;8.87;89.11
67862;DHT22;54665;51.462;6.698;2022-11-25T03:58:34;8.84;89.53
67862;DHT22;54665;51.462;6.698;2022-11-25T04:01:02;8.81;89.40
67862;DHT22;54665;51.462;6.698;2022-11-25T04:03:29;8.79;89.93
67862;DHT22;54665;51.462;6.698;2022-11-25T04:05:54;8.79;90.02
67862;DHT22;54665;51.462;6.698;2022-11-25T04:08:21;8.74;90.51
67862;DHT22;54665;51.462;6.698;2022-11-25T04:10:50;8.70;90.93
67862;DHT22;54665;51.462;6.698;2022-11-25T04:13:20;8.62;91.59
67862;DHT22;54665;51.462;6.698;2022-11-25T04:15:46;8.64;91.31
67862;DHT22;54665;51.462;6.698;2022-11-25T04:18:13;8.63;91.32
67862;DHT22;54665;51.462;6.698;2022-11-25T04:20:39;8.63;91.22
67862;DHT22;54665;51.462;6.698;2022-11-25T04:23:06;8.59;91.52
67862;DHT22;54665;51.462;6.698;2022-11-25T04:25:36;8.55;91.81
67862;DHT22;54665;51.462;6.698;2022-11-25T04:28:08;8.52;91.88
67862;DHT22;54665;51.462;6.698;2022-11-25T04:30:36;8.43;92.33
67862;DHT22;54665;51.462;6.698;2022-11-25T04:33:01;8.39;92.34
67862;DHT22;54665;51.462;6.698;2022-11-25T04:35:27;8.45;91.97
67862;DHT22;54665;51.462;6.698;2022-11-25T04:37:53;8.36;92.14
67862;DHT22;54665;51.462;6.698;2022-11-25T04:40:20;8.29;92.86
67862;DHT22;54665;51.462;6.698;2022-11-25T04:42:53;8.29;93.13
67862;DHT22;54665;51.462;6.698;2022-11-25T04:45:21;8.28;93.35
67862;DHT22;54665;51.462;6.698;2022-11-25T04:47:46;8.28;93.63
67862;DHT22;54665;51.462;6.698;2022-11-25T04:50:15;8.28;93.64
67862;DHT22;54665;51.462;6.698;2022-11-25T04:52:51;8.25;93.83
67862;DHT22;54665;51.462;6.698;2022-11-25T04:55:17;8.18;93.92
67862;DHT22;54665;51.462;6.698;2022-11-25T04:57:42;8.14;93.99
67862;DHT22;54665;51.462;6.698;2022-11-25T05:00:10;8.11;94.20
67862;DHT22;54665;51.462;6.698;2022-11-25T05:02:37;8.11;94.52
67862;DHT22;54665;51.462;6.698;2022-11-25T05:05:08;8.16;94.56
67862;DHT22;54665;51.462;6.698;2022-11-25T05:07:34;8.18;94.66
67862;DHT22;54665;51.462;6.698;2022-11-25T05:09:59;8.21;94.69
67862;DHT22;54665;51.462;6.698;2022-11-25T05:12:35;8.20;94.73
67862;DHT22;54665;51.462;6.698;2022-11-25T05:15:05;8.21;94.85
67862;DHT22;54665;51.462;6.698;2022-11-25T05:17:34;8.18;94.99
67862;DHT22;54665;51.462;6.698;2022-11-25T05:20:00;8.14;95.07
67862;DHT22;54665;51.462;6.698;2022-11-25T05:22:28;8.14;95.29
67862;DHT22;54665;51.462;6.698;2022-11-25T05:24:55;8.14;95.29
67862;DHT22;54665;51.462;6.698;2022-11-25T05:27:23;8.12;95.30
67862;DHT22;54665;51.462;6.698;2022-11-25T05:29:49;8.11;95.49
67862;DHT22;54665;51.462;6.698;2022-11-25T05:32:14;8.14;95.59
67862;DHT22;54665;51.462;6.698;2022-11-25T05:34:41;8.12;95.68
67862;DHT22;54665;51.462;6.698;2022-11-25T05:37:09;8.16;95.66
67862;DHT22;54665;51.462;6.698;2022-11-25T05:39:38;8.21;95.62
67862;DHT22;54665;51.462;6.698;2022-11-25T05:42:24;8.20;95.60
67862;DHT22;54665;51.462;6.698;2022-11-25T05:44:50;8.22;95.65
67862;DHT22;54665;51.462;6.698;2022-11-25T05:47:15;8.20;95.63
67862;DHT22;54665;51.462;6.698;2022-11-25T05:49:41;8.20;95.61
67862;DHT22;54665;51.462;6.698;2022-11-25T05:52:06;8.21;95.65
67862;DHT22;54665;51.462;6.698;2022-11-25T05:54:39;8.25;95.62
67862;DHT22;54665;51.462;6.698;2022-11-25T05:57:05;8.26;95.48
67862;DHT22;54665;51.462;6.698;2022-11-25T05:59:38;8.26;95.40
67862;DHT22;54665;51.462;6.698;2022-11-25T06:02:10;8.24;95.38
67862;DHT22;54665;51.462;6.698;2022-11-25T06:04:36;8.25;95.38
67862;DHT22;54665;51.462;6.698;2022-11-25T06:07:01;8.21;95.26
67862;DHT22;54665;51.462;6.698;2022-11-25T06:09:28;8.14;95.17
67862;DHT22;54665;51.462;6.698;2022-11-25T06:11:54;8.04;95.11
67862;DHT22;54665;51.462;6.698;2022-11-25T06:14:19;7.95;95.25
67862;DHT22;54665;51.462;6.698;2022-11-25T06:16:47;7.87;95.34
67862;DHT22;54665;51.462;6.698;2022-11-25T06:19:23;7.78;95.43
67862;DHT22;54665;51.462;6.698;2022-11-25T06:21:49;7.64;95.52
67862;DHT22;54665;51.462;6.698;2022-11-25T06:24:15;7.61;95.72
67862;DHT22;54665;51.462;6.698;2022-11-25T06:26:43;7.64;95.90
67862;DHT22;54665;51.462;6.698;2022-11-25T06:29:09;7.75;96.18
67862;DHT22;54665;51.462;6.698;2022-11-25T06:31:34;7.87;96.17
67862;DHT22;54665;51.462;6.698;2022-11-25T06:34:22;7.94;96.13
67862;DHT22;54665;51.462;6.698;2022-11-25T06:36:49;7.98;96.15
67862;DHT22;54665;51.462;6.698;2022-11-25T06:39:14;8.08;96.17
67862;DHT22;54665;51.462;6.698;2022-11-25T06:41:40;8.05;96.10
67862;DHT22;54665;51.462;6.698;2022-11-25T06:44:05;8.08;96.02
67862;DHT22;54665;51.462;6.698;2022-11-25T06:46:30;8.06;96.06
67862;DHT22;54665;51.462;6.698;2022-11-25T06:48:58;8.05;96.07
67862;DHT22;54665;51.462;6.698;2022-11-25T06:51:24;8.08;96.04
67862;DHT22;54665;51.462;6.698;2022-11-25T06:53:50;8.05;96.08
67862;DHT22;54665;51.462;6.698;2022-11-25T06:56:24;8.11;96.08
67862;DHT22;54665;51.462;6.698;2022-11-25T06:58:50;8.11;96.10
67862;DHT22;54665;51.462;6.698;2022-11-25T07:01:18;8.09;95.98
67862;DHT22;54665;51.462;6.698;2022-11-25T07:03:45;8.11;96.01
67862;DHT22;54665;51.462;6.698;2022-11-25T07:06:12;8.15;96.07
67862;DHT22;54665;51.462;6.698;2022-11-25T07:08:39;8.16;96.04
67862;DHT22;54665;51.462;6.698;2022-11-25T07:11:10;8.16;96.04
67862;DHT22;54665;51.462;6.698;2022-11-25T07:13:37;8.09;96.00
67862;DHT22;54665;51.462;6.698;2022-11-25T07:16:03;8.01;95.93
67862;DHT22;54665;51.462;6.698;2022-11-25T07:18:35;7.87;95.99
67862;DHT22;54665;51.462;6.698;2022-11-25T07:21:03;7.67;95.99
67862;DHT22;54665;51.462;6.698;2022-11-25T07:23:28;7.59;96.18
67862;DHT22;54665;51.462;6.698;2022-11-25T07:25:54;7.46;96.03
67862;DHT22;54665;51.462;6.698;2022-11-25T07:28:19;7.40;96.25
67862;DHT22;54665;51.462;6.698;2022-11-25T07:30:45;7.30;96.42
67862;DHT22;54665;51.462;6.698;2022-11-25T07:33:10;7.29;96.47
67862;DHT22;54665;51.462;6.698;2022-11-25T07:35:36;7.29;96.57
67862;DHT22;54665;51.462;6.698;2022-11-25T07:38:01;7.27;96.72
67862;DHT22;54665;51.462;6.698;2022-11-25T07:40:26;7.30;96.81
67862;DHT22;54665;51.462;6.698;2022-11-25T07:42:52;7.37;96.81
67862;DHT22;54665;51.462;6.698;2022-11-25T07:45:17;7.32;96.77
67862;DHT22;54665;51.462;6.698;2022-11-25T07:47:44;7.32;96.81
67862;DHT22;54665;51.462;6.698;2022-11-25T07:50:10;7.40;96.95
67862;DHT22;54665;51.462;6.698;2022-11-25T07:52:38;7.56;97.02
67862;DHT22;54665;51.462;6.698;2022-11-25T07:55:05;7.69;97.05
67862;DHT22;54665;51.462;6.698;2022-11-25T07:57:30;7.73;96.97
67862;DHT22;54665;51.462;6.698;2022-11-25T07:59:55;7.67;96.86
67862;DHT22;54665;51.462;6.698;2022-11-25T08:02:21;7.71;96.92
67862;DHT22;54665;51.462;6.698;2022-11-25T08:04:46;7.83;96.86
67862;DHT22;54665;51.462;6.698;2022-11-25T08:07:12;7.87;96.70
67862;DHT22;54665;51.462;6.698;2022-11-25T08:09:37;7.80;96.53
67862;DHT22;54665;51.462;6.698;2022-11-25T08:12:02;7.67;96.45
67862;DHT22;54665;51.462;6.698;2022-11-25T08:14:28;7.66;96.49
67862;DHT22;54665;51.462;6.698;2022-11-25T08:16:53;7.63;96.45
67862;DHT22;54665;51.462;6.698;2022-11-25T08:19:19;7.61;96.40
67862;DHT22;54665;51.462;6.698;2022-11-25T08:21:44;7.56;96.35
67862;DHT22;54665;51.462;6.698;2022-11-25T08:24:14;7.67;96.44
67862;DHT22;54665;51.462;6.698;2022-11-25T08:26:41;7.69;96.41
67862;DHT22;54665;51.462;6.698;2022-11-25T08:29:06;7.66;96.37
67862;DHT22;54665;51.462;6.698;2022-11-25T08:31:36;7.64;96.45
67862;DHT22;54665;51.462;6.698;2022-11-25T08:34:03;7.69;96.42
67862;DHT22;54665;51.462;6.698;2022-11-25T08:36:30;7.67;96.31
67862;DHT22;54665;51.462;6.698;2022-11-25T08:38:58;7.60;96.33
67862;DHT22;54665;51.462;6.698;2022-11-25T08:41:27;7.64;96.38
67862;DHT22;54665;51.462;6.698;2022-11-25T08:43:53;7.66;96.53
67862;DHT22;54665;51.462;6.698;2022-11-25T08:46:22;7.73;96.44
67862;DHT22;54665;51.462;6.698;2022-11-25T08:48:48;7.81;96.42
67862;DHT22;54665;51.462;6.698;2022-11-25T08:51:17;7.87;96.32
67862;DHT22;54665;51.462;6.698;2022-11-25T08:53:44;7.91;96.26
67862;DHT22;54665;51.462;6.698;2022-11-25T08:56:10;7.95;96.20
67862;DHT22;54665;51.462;6.698;2022-11-25T08:58:36;8.04;95.95
67862;DHT22;54665;51.462;6.698;2022-11-25T09:01:03;8.12;95.86
67862;DHT22;54665;51.462;6.698;2022-11-25T09:03:32;8.18;95.70
67862;DHT22;54665;51.462;6.698;2022-11-25T09:05:58;8.28;95.37
67862;DHT22;54665;51.462;6.698;2022-11-25T09:08:25;8.38;94.94
67862;DHT22;54665;51.462;6.698;2022-11-25T09:10:50;8.38;94.91
67862;DHT22;54665;51.462;6.698;2022-11-25T09:13:16;8.50;94.89
67862;DHT22;54665;51.462;6.698;2022-11-25T09:15:41;8.55;94.34
67862;DHT22;54665;51.462;6.698;2022-11-25T09:18:08;8.56;94.48
67862;DHT22;54665;51.462;6.698;2022-11-25T09:20:36;8.62;94.38
67862;DHT22;54665;51.462;6.698;2022-11-25T09:23:02;8.79;93.80
67862;DHT22;54665;51.462;6.698;2022-11-25T09:25:28;8.88;93.55
67862;DHT22;54665;51.462;6.698;2022-11-25T09:27:54;8.84;93.41
67862;DHT22;54665;51.462;6.698;2022-11-25T09:30:20;8.74;92.95
67862;DHT22;54665;51.462;6.698;2022-11-25T09:32:48;8.60;93.05
67862;DHT22;54665;51.462;6.698;2022-11-25T09:35:13;8.48;93.48
67862;DHT22;54665;51.462;6.698;2022-11-25T09:37:38;8.38;93.83
67862;DHT22;54665;51.462;6.698;2022-11-25T09:40:06;8.42;93.95
67862;DHT22;54665;51.462;6.698;2022-11-25T09:42:53;8.42;93.70
67862;DHT22;54665;51.462;6.698;2022-11-25T09:45:52;8.55;93.90
67862;DHT22;54665;51.462;6.698;2022-11-25T09:54:23;8.91;92.70
67862;DHT22;54665;51.462;6.698;2022-11-25T09:56:55;8.84;92.94
67862;DHT22;54665;51.462;6.698;2022-11-25T10:02:01;8.81;93.00
67862;DHT22;54665;51.462;6.698;2022-11-25T10:04:35;8.87;93.03
67862;DHT22;54665;51.462;6.698;2022-11-25T10:07:03;9.04;93.02
67862;DHT22;54665;51.462;6.698;2022-11-25T10:09:32;9.23;92.40
67862;DHT22;54665;51.462;6.698;2022-11-25T10:14:47;9.49;91.11
67862;DHT22;54665;51.462;6.698;2022-11-25T10:17:24;9.55;90.98
67862;DHT22;54665;51.462;6.698;2022-11-25T10:19:58;9.69;91.11
67862;DHT22;54665;51.462;6.698;2022-11-25T10:22:33;10.02;89.10
67862;DHT22;54665;51.462;6.698;2022-11-25T10:25:13;10.23;88.80
67862;DHT22;54665;51.462;6.698;2022-11-25T10:28:30;10.16;87.83
67862;DHT22;54665;51.462;6.698;2022-11-25T10:31:03;10.27;87.48
67862;DHT22;54665;51.462;6.698;2022-11-25T10:33:48;10.30;87.67
67862;DHT22;54665;51.462;6.698;2022-11-25T10:36:20;10.34;86.45
67862;DHT22;54665;51.462;6.698;2022-11-25T10:39:09;10.57;86.47
67862;DHT22;54665;51.462;6.698;2022-11-25T10:41:42;10.67;85.27
67862;DHT22;54665;51.462;6.698;2022-11-25T10:44:28;10.64;84.67
67862;DHT22;54665;51.462;6.698;2022-11-25T10:49:56;10.95;84.34
67862;DHT22;54665;51.462;6.698;2022-11-25T10:52:27;11.14;82.85
67862;DHT22;54665;51.462;6.698;2022-11-25T10:54:56;11.16;82.68
67862;DHT22;54665;51.462;6.698;2022-11-25T10:57:26;10.95;82.81
67862;DHT22;54665;51.462;6.698;2022-11-25T10:59:56;10.99;83.65
67862;DHT22;54665;51.462;6.698;2022-11-25T11:02:30;11.12;83.20
67862;DHT22;54665;51.462;6.698;2022-11-25T11:07:42;11.16;83.61
67862;DHT22;54665;51.462;6.698;2022-11-25T11:10:21;11.01;83.34
67862;DHT22;54665;51.462;6.698;2022-11-25T11:18:38;11.35;82.63
67862;DHT22;54665;51.462;6.698;2022-11-25T11:21:05;11.47;82.60
67862;DHT22;54665;51.462;6.698;2022-11-25T11:23:46;11.44;81.77
67862;DHT22;54665;51.462;6.698;2022-11-25T11:26:31;11.42;81.27
67862;DHT22;54665;51.462;6.698;2022-11-25T11:29:10;11.56;82.47
67862;DHT22;54665;51.462;6.698;2022-11-25T11:31:39;11.66;81.53
67862;DHT22;54665;51.462;6.698;2022-11-25T11:37:16;12.01;79.33
67862;DHT22;54665;51.462;6.698;2022-11-25T11:42:56;12.02;78.93
67862;DHT22;54665;51.462;6.698;2022-11-25T11:48:25;11.83;78.32
67862;DHT22;54665;51.462;6.698;2022-11-25T11:51:04;11.71;78.65
67862;DHT22;54665;51.462;6.698;2022-11-25T11:56:27;11.70;78.20
67862;DHT22;54665;51.462;6.698;2022-11-25T11:59:20;11.60;78.44
67862;DHT22;54665;51.462;6.698;2022-11-25T12:07:14;11.35;79.26
67862;DHT22;54665;51.462;6.698;2022-11-25T12:10:23;11.42;79.76
67862;DHT22;54665;51.462;6.698;2022-11-25T12:13:02;11.36;79.21
67862;DHT22;54665;51.462;6.698;2022-11-25T12:26:47;12.51;75.31
67862;DHT22;54665;51.462;6.698;2022-11-25T12:29:36;12.46;75.43
67862;DHT22;54665;51.462;6.698;2022-11-25T12:34:41;12.21;76.11
67862;DHT22;54665;51.462;6.698;2022-11-25T12:37:15;12.05;76.11
67862;DHT22;54665;51.462;6.698;2022-11-25T12:39:58;11.90;76.38
67862;DHT22;54665;51.462;6.698;2022-11-25T12:42:27;11.80;76.56
67862;DHT22;54665;51.462;6.698;2022-11-25T12:45:02;11.83;76.71
67862;DHT22;54665;51.462;6.698;2022-11-25T12:47:30;11.81;77.03
67862;DHT22;54665;51.462;6.698;2022-11-25T12:49:55;11.76;76.99
67862;DHT22;54665;51.462;6.698;2022-11-25T12:52:52;11.73;77.38
67862;DHT22;54665;51.462;6.698;2022-11-25T12:55:24;11.74;77.55
67862;DHT22;54665;51.462;6.698;2022-11-25T13:10:02;11.53;79.35
67862;DHT22;54665;51.462;6.698;2022-11-25T13:15:28;11.79;77.92
67862;DHT22;54665;51.462;6.698;2022-11-25T13:17:58;11.89;77.09
67862;DHT22;54665;51.462;6.698;2022-11-25T13:25:32;12.05;76.03
67862;DHT22;54665;51.462;6.698;2022-11-25T13:28:00;11.93;76.17
67862;DHT22;54665;51.462;6.698;2022-11-25T13:38:34;11.55;77.01
67862;DHT22;54665;51.462;6.698;2022-11-25T13:46:42;11.73;77.32
67862;DHT22;54665;51.462;6.698;2022-11-25T13:54:47;11.79;76.97
67862;DHT22;54665;51.462;6.698;2022-11-25T13:57:16;11.70;76.77
67862;DHT22;54665;51.462;6.698;2022-11-25T14:02:30;11.67;76.69
67862;DHT22;54665;51.462;6.698;2022-11-25T14:08:29;11.65;76.64
67862;DHT22;54665;51.462;6.698;2022-11-25T14:14:22;11.53;77.46
67862;DHT22;54665;51.462;6.698;2022-11-25T14:20:13;11.50;77.54
67862;DHT22;54665;51.462;6.698;2022-11-25T14:23:00;11.49;77.24
67862;DHT22;54665;51.462;6.698;2022-11-25T14:25:42;11.49;77.52
67862;DHT22;54665;51.462;6.698;2022-11-25T14:30:44;11.44;78.09
67862;DHT22;54665;51.462;6.698;2022-11-25T14:33:14;11.38;78.31
67862;DHT22;54665;51.462;6.698;2022-11-25T14:35:47;11.32;78.46
67862;DHT22;54665;51.462;6.698;2022-11-25T14:38:19;11.36;78.08
67862;DHT22;54665;51.462;6.698;2022-11-25T14:40:53;11.36;77.68
67862;DHT22;54665;51.462;6.698;2022-11-25T14:43:22;11.35;78.10
67862;DHT22;54665;51.462;6.698;2022-11-25T14:46:09;11.35;78.32
67862;DHT22;54665;51.462;6.698;2022-11-25T14:48:35;11.35;77.90
67862;DHT22;54665;51.462;6.698;2022-11-25T14:51:06;11.32;78.17
67862;DHT22;54665;51.462;6.698;2022-11-25T14:53:38;11.26;78.49
67862;DHT22;54665;51.462;6.698;2022-11-25T14:56:04;11.18;78.39
67862;DHT22;54665;51.462;6.698;2022-11-25T14:58:30;10.95;79.40
67862;DHT22;54665;51.462;6.698;2022-11-25T15:01:07;10.84;79.96
67862;DHT22;54665;51.462;6.698;2022-11-25T15:03:32;10.75;80.03
67862;DHT22;54665;51.462;6.698;2022-11-25T15:06:05;10.72;80.19
67862;DHT22;54665;51.462;6.698;2022-11-25T15:08:44;10.71;80.38
67862;DHT22;54665;51.462;6.698;2022-11-25T15:11:21;10.78;80.28
67862;DHT22;54665;51.462;6.698;2022-11-25T15:13:54;10.87;80.11
67862;DHT22;54665;51.462;6.698;2022-11-25T15:16:29;10.88;79.76
67862;DHT22;54665;51.462;6.698;2022-11-25T15:18:58;10.81;79.81
67862;DHT22;54665;51.462;6.698;2022-11-25T15:21:34;10.65;80.48
67862;DHT22;54665;51.462;6.698;2022-11-25T15:24:01;10.53;80.89
67862;DHT22;54665;51.462;6.698;2022-11-25T15:26:30;10.34;81.15
67862;DHT22;54665;51.462;6.698;2022-11-25T15:31:33;10.10;82.03
67862;DHT22;54665;51.462;6.698;2022-11-25T15:34:02;9.96;82.86
67862;DHT22;54665;51.462;6.698;2022-11-25T15:36:29;9.92;83.33
67862;DHT22;54665;51.462;6.698;2022-11-25T15:41:47;10.00;82.78
67862;DHT22;54665;51.462;6.698;2022-11-25T15:44:28;9.95;83.22
67862;DHT22;54665;51.462;6.698;2022-11-25T15:47:02;9.90;83.70
67862;DHT22;54665;51.462;6.698;2022-11-25T15:49:29;9.97;83.91
67862;DHT22;54665;51.462;6.698;2022-11-25T15:52:02;9.97;83.61
67862;DHT22;54665;51.462;6.698;2022-11-25T15:54:31;9.92;83.81
67862;DHT22;54665;51.462;6.698;2022-11-25T15:57:01;9.95;83.75
67862;DHT22;54665;51.462;6.698;2022-11-25T15:59:41;9.96;83.53
67862;DHT22;54665;51.462;6.698;2022-11-25T16:02:31;10.00;83.59
67862;DHT22;54665;51.462;6.698;2022-11-25T16:15:54;10.17;83.15
67862;DHT22;54665;51.462;6.698;2022-11-25T16:18:23;10.21;82.78
67862;DHT22;54665;51.462;6.698;2022-11-25T16:20:54;10.30;82.50
67862;DHT22;54665;51.462;6.698;2022-11-25T16:23:21;10.33;82.56
67862;DHT22;54665;51.462;6.698;2022-11-25T16:25:59;10.27;82.61
67862;DHT22;54665;51.462;6.698;2022-11-25T16:28:25;10.19;82.67
67862;DHT22;54665;51.462;6.698;2022-11-25T16:30:51;10.07;83.15
67862;DHT22;54665;51.462;6.698;2022-11-25T16:33:18;9.92;83.43
67862;DHT22;54665;51.462;6.698;2022-11-25T16:35:44;9.75;84.00
67862;DHT22;54665;51.462;6.698;2022-11-25T16:38:10;9.58;84.75
67862;DHT22;54665;51.462;6.698;2022-11-25T16:40:37;9.44;85.55
67862;DHT22;54665;51.462;6.698;2022-11-25T16:43:06;9.41;85.48
67862;DHT22;54665;51.462;6.698;2022-11-25T16:45:38;9.28;85.94
67862;DHT22;54665;51.462;6.698;2022-11-25T16:48:15;9.05;86.31
67862;DHT22;54665;51.462;6.698;2022-11-25T16:50:41;9.03;87.08
67862;DHT22;54665;51.462;6.698;2022-11-25T16:53:07;9.00;87.06
67862;DHT22;54665;51.462;6.698;2022-11-25T16:55:32;9.13;87.22
67862;DHT22;54665;51.462;6.698;2022-11-25T16:57:58;9.34;86.17
67862;DHT22;54665;51.462;6.698;2022-11-25T17:00:23;9.34;86.04
67862;DHT22;54665;51.462;6.698;2022-11-25T17:02:49;9.39;85.93
67862;DHT22;54665;51.462;6.698;2022-11-25T17:05:21;9.32;86.22
67862;DHT22;54665;51.462;6.698;2022-11-25T17:07:48;9.31;86.08
67862;DHT22;54665;51.462;6.698;2022-11-25T17:10:17;9.30;86.19
67862;DHT22;54665;51.462;6.698;2022-11-25T17:12:44;9.17;86.44
67862;DHT22;54665;51.462;6.698;2022-11-25T17:15:18;9.10;86.73
67862;DHT22;54665;51.462;6.698;2022-11-25T17:17:46;9.05;86.94
67862;DHT22;54665;51.462;6.698;2022-11-25T17:20:21;8.99;87.19
67862;DHT22;54665;51.462;6.698;2022-11-25T17:22:48;8.81;87.61
67862;DHT22;54665;51.462;6.698;2022-11-25T17:25:14;8.66;88.11
67862;DHT22;54665;51.462;6.698;2022-11-25T17:27:40;8.67;88.67
67862;DHT22;54665;51.462;6.698;2022-11-25T17:30:07;8.49;88.56
67862;DHT22;54665;51.462;6.698;2022-11-25T17:32:37;8.42;89.12
67862;DHT22;54665;51.462;6.698;2022-11-25T17:35:02;8.36;89.20
67862;DHT22;54665;51.462;6.698;2022-11-25T17:37:28;8.42;89.63
67862;DHT22;54665;51.462;6.698;2022-11-25T17:39:55;8.63;89.34
67862;DHT22;54665;51.462;6.698;2022-11-25T17:42:28;8.74;88.88
67862;DHT22;54665;51.462;6.698;2022-11-25T17:44:54;8.87;88.60
67862;DHT22;54665;51.462;6.698;2022-11-25T17:47:20;9.03;88.02
67862;DHT22;54665;51.462;6.698;2022-11-25T17:49:45;9.14;87.33
67862;DHT22;54665;51.462;6.698;2022-11-25T17:52:11;9.24;86.72
67862;DHT22;54665;51.462;6.698;2022-11-25T17:54:36;9.37;86.10
67862;DHT22;54665;51.462;6.698;2022-11-25T17:57:03;9.25;86.51
67862;DHT22;54665;51.462;6.698;2022-11-25T17:59:32;9.20;86.83
67862;DHT22;54665;51.462;6.698;2022-11-25T18:01:58;9.23;86.89
67862;DHT22;54665;51.462;6.698;2022-11-25T18:04:32;9.25;86.77
67862;DHT22;54665;51.462;6.698;2022-11-25T18:06:59;9.30;86.64